createdAt,value
2023-01-12T00:00:43.955Z,1.60
2023-01-12T00:01:43.930Z,1.70
2023-01-12T00:02:44.006Z,1.30
2023-01-12T00:03:43.902Z,1.30
2023-01-12T00:04:43.908Z,1.40
2023-01-12T00:05:43.909Z,1.50
2023-01-12T00:06:43.961Z,1.40
2023-01-12T00:07:43.921Z,1.40
2023-01-12T00:08:43.948Z,1.20
2023-01-12T00:09:43.902Z,1.40
2023-01-12T00:10:43.915Z,1.40
2023-01-12T00:11:43.872Z,1.30
2023-01-12T00:12:43.940Z,1.70
2023-01-12T00:13:43.788Z,1.40
2023-01-12T00:14:43.959Z,1.20
2023-01-12T00:15:43.878Z,1.40
2023-01-12T00:16:43.889Z,2.00
2023-01-12T00:17:43.819Z,1.20
2023-01-12T00:18:43.810Z,1.60
2023-01-12T00:19:43.881Z,1.40
2023-01-12T00:20:43.816Z,1.40
2023-01-12T00:21:43.795Z,1.40
2023-01-12T00:22:43.796Z,1.50
2023-01-12T00:23:43.788Z,1.20
2023-01-12T00:24:43.754Z,1.80
2023-01-12T00:25:43.725Z,1.30
2023-01-12T00:26:43.751Z,1.40
2023-01-12T00:27:43.849Z,1.50
2023-01-12T00:28:43.756Z,1.70
2023-01-12T00:29:43.745Z,1.30
2023-01-12T00:30:43.645Z,1.30
2023-01-12T00:31:43.683Z,1.30
2023-01-12T00:32:43.694Z,1.60
2023-01-12T00:33:43.689Z,1.50
2023-01-12T00:34:43.694Z,1.50
2023-01-12T00:35:43.622Z,1.60
2023-01-12T00:36:43.536Z,1.20
2023-01-12T00:37:43.481Z,1.50
2023-01-12T00:38:43.463Z,1.10
2023-01-12T00:39:53.131Z,1.30
2023-01-12T00:40:43.569Z,1.50
2023-01-12T00:41:43.653Z,1.70
2023-01-12T00:42:43.592Z,1.50
2023-01-12T00:43:43.534Z,1.90
2023-01-12T00:44:43.539Z,1.50
2023-01-12T00:45:43.551Z,1.80
2023-01-12T00:46:43.567Z,2.10
2023-01-12T00:47:43.576Z,1.50
2023-01-12T00:48:43.494Z,1.90
2023-01-12T00:49:43.509Z,1.50
2023-01-12T00:50:43.497Z,1.60
2023-01-12T00:51:43.477Z,1.60
2023-01-12T00:52:43.544Z,1.60
2023-01-12T00:53:43.460Z,1.70
2023-01-12T00:54:43.557Z,1.70
2023-01-12T00:55:43.330Z,1.80
2023-01-12T00:56:43.360Z,2.30
2023-01-12T00:57:43.385Z,1.80
2023-01-12T00:58:43.363Z,1.60
2023-01-12T00:59:43.372Z,1.80
2023-01-12T01:00:43.316Z,1.70
2023-01-12T01:01:43.488Z,1.60
2023-01-12T01:02:43.444Z,1.80
2023-01-12T01:03:43.313Z,1.80
2023-01-12T01:04:43.297Z,1.80
2023-01-12T01:05:43.353Z,1.60
2023-01-12T01:06:43.296Z,1.70
2023-01-12T01:07:43.400Z,1.90
2023-01-12T01:08:43.328Z,2.00
2023-01-12T01:09:43.248Z,1.70
2023-01-12T01:10:43.273Z,1.80
2023-01-12T01:11:43.218Z,1.90
2023-01-12T01:12:43.324Z,1.60
2023-01-12T01:13:43.262Z,1.70
2023-01-12T01:14:43.211Z,1.80
2023-01-12T01:15:43.369Z,1.80
2023-01-12T01:16:43.170Z,1.90
2023-01-12T01:17:43.202Z,2.00
2023-01-12T01:18:43.202Z,2.10
2023-01-12T01:19:43.222Z,1.80
2023-01-12T01:20:43.254Z,2.10
2023-01-12T01:21:43.124Z,1.90
2023-01-12T01:22:43.103Z,2.10
2023-01-12T01:23:43.090Z,2.20
2023-01-12T01:24:43.093Z,1.90
2023-01-12T01:25:43.078Z,2.00
2023-01-12T01:26:43.063Z,1.80
2023-01-12T01:27:43.049Z,2.00
2023-01-12T01:28:43.048Z,1.90
2023-01-12T01:29:43.041Z,1.90
2023-01-12T01:30:43.048Z,2.10
2023-01-12T01:31:43.066Z,1.90
2023-01-12T01:32:43.077Z,1.80
2023-01-12T01:33:42.982Z,1.90
2023-01-12T01:34:42.922Z,2.10
2023-01-12T01:35:42.933Z,1.80
2023-01-12T01:36:42.952Z,1.70
2023-01-12T01:37:43.036Z,1.80
2023-01-12T01:38:42.884Z,1.80
2023-01-12T01:39:42.887Z,1.90
2023-01-12T01:40:42.949Z,1.70
2023-01-12T01:41:43.662Z,1.60
2023-01-12T01:42:42.848Z,1.80
2023-01-12T01:43:42.822Z,1.60
2023-01-12T01:44:42.883Z,1.80
2023-01-12T01:45:42.950Z,2.00
2023-01-12T01:46:43.005Z,1.60
2023-01-12T01:47:42.942Z,1.70
2023-01-12T01:48:42.764Z,1.40
2023-01-12T01:49:42.832Z,1.50
2023-01-12T01:50:42.805Z,1.60
2023-01-12T01:51:42.790Z,1.50
2023-01-12T01:52:42.760Z,1.70
2023-01-12T01:53:42.819Z,1.50
2023-01-12T01:54:42.719Z,1.80
2023-01-12T01:55:42.705Z,1.60
2023-01-12T01:56:42.705Z,1.50
2023-01-12T01:57:42.717Z,1.60
2023-01-12T01:58:42.806Z,1.40
2023-01-12T01:59:42.660Z,1.50
2023-01-12T02:00:42.703Z,1.70
2023-01-12T02:01:42.743Z,1.50
2023-01-12T02:02:42.634Z,1.50
2023-01-12T02:03:42.677Z,1.40
2023-01-12T02:04:42.573Z,1.70
2023-01-12T02:05:42.555Z,1.50
2023-01-12T02:06:42.564Z,1.50
2023-01-12T02:07:42.522Z,1.50
2023-01-12T02:08:42.601Z,1.60
2023-01-12T02:09:42.522Z,1.60
2023-01-12T02:10:42.511Z,1.70
2023-01-12T02:11:42.523Z,1.70
2023-01-12T02:12:42.544Z,1.40
2023-01-12T02:13:42.578Z,1.70
2023-01-12T02:14:42.482Z,1.50
2023-01-12T02:15:42.540Z,1.50
2023-01-12T02:16:42.525Z,1.70
2023-01-12T02:17:42.540Z,1.60
2023-01-12T02:18:42.553Z,2.10
2023-01-12T02:19:42.562Z,1.90
2023-01-12T02:20:42.504Z,1.70
2023-01-12T02:21:42.389Z,1.70
2023-01-12T02:22:42.403Z,1.60
2023-01-12T02:23:42.413Z,1.60
2023-01-12T02:24:42.440Z,2.00
2023-01-12T02:25:42.402Z,1.80
2023-01-12T02:26:42.488Z,1.60
2023-01-12T02:27:42.425Z,1.70
2023-01-12T02:28:42.428Z,1.60
2023-01-12T02:29:42.437Z,1.70
2023-01-12T02:30:42.451Z,1.60
2023-01-12T02:31:42.441Z,1.80
2023-01-12T02:32:42.471Z,1.60
2023-01-12T02:33:42.332Z,1.60
2023-01-12T02:34:42.250Z,1.70
2023-01-12T02:35:42.123Z,1.60
2023-01-12T02:36:42.295Z,1.80
2023-01-12T02:37:42.348Z,1.60
2023-01-12T02:38:42.279Z,1.60
2023-01-12T02:39:42.296Z,2.10
2023-01-12T02:40:42.310Z,1.60
2023-01-12T02:41:42.304Z,1.60
2023-01-12T02:42:42.304Z,1.80
2023-01-12T02:43:42.319Z,1.70
2023-01-12T02:44:42.241Z,1.60
2023-01-12T02:45:42.242Z,1.60
2023-01-12T02:46:42.260Z,1.70
2023-01-12T02:47:42.227Z,1.70
2023-01-12T02:48:42.303Z,1.70
2023-01-12T02:49:42.212Z,1.70
2023-01-12T02:50:42.184Z,1.70
2023-01-12T02:51:42.157Z,1.70
2023-01-12T02:52:42.132Z,1.60
2023-01-12T02:53:42.121Z,1.70
2023-01-12T02:54:42.194Z,1.60
2023-01-12T02:55:42.113Z,1.70
2023-01-12T02:56:42.104Z,1.60
2023-01-12T02:57:42.167Z,1.60
2023-01-12T02:58:42.069Z,1.70
2023-01-12T02:59:42.138Z,1.70
2023-01-12T03:00:42.123Z,1.60
2023-01-12T03:01:41.985Z,1.70
2023-01-12T03:02:42.109Z,1.50
2023-01-12T03:03:42.058Z,1.70
2023-01-12T03:04:41.945Z,1.70
2023-01-12T03:05:41.980Z,1.60
2023-01-12T03:06:42.005Z,1.80
2023-01-12T03:07:42.025Z,1.70
2023-01-12T03:08:41.935Z,1.90
2023-01-12T03:09:41.889Z,1.60
2023-01-12T03:10:41.919Z,1.80
2023-01-12T03:11:41.935Z,2.00
2023-01-12T03:12:41.861Z,1.70
2023-01-12T03:13:41.961Z,1.80
2023-01-12T03:14:41.897Z,2.00
2023-01-12T03:15:41.919Z,1.80
2023-01-12T03:16:41.876Z,1.70
2023-01-12T03:17:41.948Z,1.80
2023-01-12T03:18:41.868Z,1.70
2023-01-12T03:19:41.948Z,1.60
2023-01-12T03:20:41.870Z,1.80
2023-01-12T03:21:41.751Z,1.70
2023-01-12T03:22:41.786Z,1.70
2023-01-12T03:23:41.809Z,1.60
2023-01-12T03:24:41.836Z,1.60
2023-01-12T03:25:41.783Z,1.50
2023-01-12T03:26:41.736Z,1.40
2023-01-12T03:27:41.769Z,1.40
2023-01-12T03:28:41.719Z,1.40
2023-01-12T03:29:41.742Z,1.40
2023-01-12T03:30:41.768Z,1.50
2023-01-12T03:31:41.746Z,1.40
2023-01-12T03:32:41.597Z,1.50
2023-01-12T03:33:41.648Z,1.40
2023-01-12T03:34:41.640Z,1.40
2023-01-12T03:35:41.667Z,1.40
2023-01-12T03:36:41.696Z,1.70
2023-01-12T03:37:41.577Z,1.20
2023-01-12T03:38:41.595Z,1.50
2023-01-12T03:39:41.633Z,1.40
2023-01-12T03:40:41.670Z,1.60
2023-01-12T03:41:41.644Z,1.60
2023-01-12T03:42:41.584Z,1.70
2023-01-12T03:43:41.534Z,1.50
2023-01-12T03:44:41.568Z,1.50
2023-01-12T03:45:41.591Z,1.60
2023-01-12T03:46:41.554Z,1.50
2023-01-12T03:47:41.629Z,1.50
2023-01-12T03:48:41.552Z,1.40
2023-01-12T03:49:41.535Z,1.50
2023-01-12T03:50:41.535Z,1.50
2023-01-12T03:51:41.607Z,1.70
2023-01-12T03:52:41.287Z,1.40
2023-01-12T03:53:41.450Z,1.40
2023-01-12T03:54:41.471Z,1.70
2023-01-12T03:55:41.449Z,1.70
2023-01-12T03:56:41.513Z,1.70
2023-01-12T03:57:41.503Z,1.50
2023-01-12T03:58:41.401Z,1.50
2023-01-12T03:59:41.379Z,1.60
2023-01-12T04:00:41.359Z,1.90
2023-01-12T04:01:41.527Z,1.30
2023-01-12T04:02:41.262Z,1.60
2023-01-12T04:03:41.402Z,2.00
2023-01-12T04:04:41.334Z,1.40
2023-01-12T04:05:41.229Z,1.50
2023-01-12T04:06:41.234Z,1.50
2023-01-12T04:07:41.233Z,1.30
2023-01-12T04:08:41.312Z,1.30
2023-01-12T04:09:41.208Z,1.30
2023-01-12T04:10:41.235Z,1.40
2023-01-12T04:11:41.209Z,1.40
2023-01-12T04:12:41.193Z,1.50
2023-01-12T04:13:41.267Z,1.60
2023-01-12T04:14:41.193Z,1.60
2023-01-12T04:15:41.191Z,1.70
2023-01-12T04:16:41.244Z,1.60
2023-01-12T04:17:41.219Z,1.70
2023-01-12T04:18:41.246Z,1.60
2023-01-12T04:19:41.272Z,1.90
2023-01-12T04:20:41.204Z,1.60
2023-01-12T04:21:41.140Z,1.50
2023-01-12T04:22:41.160Z,1.90
2023-01-12T04:23:41.176Z,1.60
2023-01-12T04:24:41.106Z,1.50
2023-01-12T04:25:41.189Z,1.70
2023-01-12T04:26:41.107Z,1.60
2023-01-12T04:27:41.121Z,1.60
2023-01-12T04:28:41.111Z,1.60
2023-01-12T04:29:41.116Z,1.70
2023-01-12T04:30:41.116Z,1.60
2023-01-12T04:31:41.139Z,1.60
2023-01-12T04:32:41.038Z,1.50
2023-01-12T04:33:41.061Z,1.50
2023-01-12T04:34:40.999Z,1.60
2023-01-12T04:35:41.116Z,1.50
2023-01-12T04:36:41.973Z,1.80
2023-01-12T04:37:41.033Z,1.70
2023-01-12T04:38:40.910Z,1.40
2023-01-12T04:39:40.946Z,1.50
2023-01-12T04:40:40.986Z,1.50
2023-01-12T04:41:40.891Z,1.40
2023-01-12T04:42:40.777Z,1.50
2023-01-12T04:43:40.816Z,1.40
2023-01-12T04:44:40.753Z,1.50
2023-01-12T04:45:40.804Z,1.50
2023-01-12T04:46:40.710Z,1.40
2023-01-12T04:47:40.904Z,1.40
2023-01-12T04:48:40.840Z,1.40
2023-01-12T04:49:40.858Z,1.50
2023-01-12T04:50:40.669Z,1.40
2023-01-12T04:51:40.850Z,1.20
2023-01-12T04:52:40.939Z,1.20
2023-01-12T04:53:40.859Z,1.20
2023-01-12T04:54:40.850Z,1.40
2023-01-12T04:55:40.815Z,1.20
2023-01-12T04:56:40.919Z,1.20
2023-01-12T04:57:40.749Z,1.30
2023-01-12T04:58:40.795Z,1.30
2023-01-12T04:59:40.749Z,1.20
2023-01-12T05:00:40.786Z,1.20
2023-01-12T05:01:40.840Z,1.00
2023-01-12T05:02:40.818Z,1.30
2023-01-12T05:03:40.557Z,1.10
2023-01-12T05:04:40.502Z,1.20
2023-01-12T05:05:40.666Z,1.20
2023-01-12T05:06:40.680Z,1.10
2023-01-12T05:07:40.708Z,1.20
2023-01-12T05:08:40.489Z,1.70
2023-01-12T05:09:40.632Z,1.10
2023-01-12T05:10:40.461Z,0.90
2023-01-12T05:11:40.624Z,1.10
2023-01-12T05:12:40.665Z,1.10
2023-01-12T05:13:40.694Z,1.00
2023-01-12T05:14:40.657Z,0.90
2023-01-12T05:15:40.691Z,0.90
2023-01-12T05:16:40.759Z,1.00
2023-01-12T05:17:40.461Z,1.10
2023-01-12T05:18:40.455Z,1.30
2023-01-12T05:19:40.631Z,1.00
2023-01-12T05:20:40.643Z,1.60
2023-01-12T05:21:40.493Z,1.10
2023-01-12T05:22:40.519Z,1.00
2023-01-12T05:23:40.547Z,1.00
2023-01-12T05:24:40.458Z,1.40
2023-01-12T05:25:40.491Z,0.90
2023-01-12T05:26:40.455Z,0.90
2023-01-12T05:27:40.408Z,0.80
2023-01-12T05:28:40.517Z,0.90
2023-01-12T05:29:40.369Z,1.00
2023-01-12T05:30:40.349Z,0.90
2023-01-12T05:31:40.472Z,0.90
2023-01-12T05:32:40.395Z,1.10
2023-01-12T05:33:40.408Z,0.80
2023-01-12T05:34:40.360Z,0.90
2023-01-12T05:35:40.239Z,0.80
2023-01-12T05:36:40.338Z,1.00
2023-01-12T05:37:40.161Z,0.90
2023-01-12T05:38:40.178Z,1.00
2023-01-12T05:39:40.273Z,1.00
2023-01-12T05:40:40.937Z,0.90
2023-01-12T05:41:40.368Z,0.90
2023-01-12T05:42:40.339Z,0.70
2023-01-12T05:43:40.234Z,0.90
2023-01-12T05:44:40.264Z,0.60
2023-01-12T05:45:40.144Z,0.90
2023-01-12T05:46:40.257Z,0.80
2023-01-12T05:47:40.055Z,1.00
2023-01-12T05:48:40.058Z,0.90
2023-01-12T05:49:40.230Z,0.70
2023-01-12T05:50:40.198Z,0.60
2023-01-12T05:51:40.147Z,0.70
2023-01-12T05:52:40.261Z,0.70
2023-01-12T05:53:40.309Z,0.70
2023-01-12T05:54:40.205Z,0.70
2023-01-12T05:55:40.220Z,0.90
2023-01-12T05:56:40.184Z,0.90
2023-01-12T05:57:39.941Z,0.70
2023-01-12T05:58:40.196Z,0.70
2023-01-12T05:59:40.149Z,0.60
2023-01-12T06:00:39.919Z,0.90
2023-01-12T06:01:39.871Z,0.80
2023-01-12T06:02:40.074Z,0.90
2023-01-12T06:03:40.047Z,0.80
2023-01-12T06:04:40.174Z,1.00
2023-01-12T06:05:40.047Z,0.70
2023-01-12T06:06:39.951Z,0.70
2023-01-12T06:07:40.085Z,0.60
2023-01-12T06:08:40.035Z,0.70
2023-01-12T06:09:40.087Z,0.70
2023-01-12T06:10:39.854Z,0.70
2023-01-12T06:11:40.009Z,0.60
2023-01-12T06:12:40.050Z,0.50
2023-01-12T06:13:39.976Z,0.60
2023-01-12T06:14:39.849Z,0.60
2023-01-12T06:15:40.035Z,0.60
2023-01-12T06:16:39.918Z,0.60
2023-01-12T06:17:39.940Z,0.60
2023-01-12T06:18:39.977Z,0.70
2023-01-12T06:19:39.992Z,0.60
2023-01-12T06:20:39.747Z,0.60
2023-01-12T06:21:39.668Z,0.60
2023-01-12T06:22:39.722Z,0.70
2023-01-12T06:23:39.660Z,0.60
2023-01-12T06:24:39.812Z,0.60
2023-01-12T06:25:39.934Z,0.70
2023-01-12T06:26:39.645Z,0.80
2023-01-12T06:27:39.779Z,0.70
2023-01-12T06:28:39.821Z,0.70
2023-01-12T06:29:39.841Z,0.60
2023-01-12T06:30:39.862Z,0.80
2023-01-12T06:31:39.808Z,0.80
2023-01-12T06:32:39.761Z,0.60
2023-01-12T06:33:39.789Z,0.70
2023-01-12T06:34:39.744Z,0.70
2023-01-12T06:35:39.853Z,0.80
2023-01-12T06:36:39.809Z,0.70
2023-01-12T06:37:42.219Z,0.50
2023-01-12T06:38:39.603Z,0.80
2023-01-12T06:39:39.713Z,0.80
2023-01-12T06:40:39.660Z,0.80
2023-01-12T06:41:39.756Z,0.70
2023-01-12T06:42:39.702Z,0.70
2023-01-12T06:43:39.574Z,0.80
2023-01-12T06:44:39.607Z,0.70
2023-01-12T06:45:39.523Z,0.70
2023-01-12T06:46:39.744Z,0.60
2023-01-12T06:47:39.715Z,0.70
2023-01-12T06:48:39.682Z,0.70
2023-01-12T06:49:39.514Z,0.90
2023-01-12T06:50:39.556Z,0.70
2023-01-12T06:51:39.530Z,0.70
2023-01-12T06:52:39.660Z,0.70
2023-01-12T06:53:39.372Z,0.80
2023-01-12T06:54:39.310Z,0.80
2023-01-12T06:55:39.484Z,0.70
2023-01-12T06:56:39.278Z,0.60
2023-01-12T06:57:39.586Z,0.80
2023-01-12T06:58:39.433Z,0.80
2023-01-12T06:59:39.454Z,0.90
2023-01-12T07:00:39.245Z,0.80
2023-01-12T07:01:39.408Z,1.00
2023-01-12T07:02:39.509Z,0.80
2023-01-12T07:03:39.489Z,0.80
2023-01-12T07:04:39.409Z,1.00
2023-01-12T07:05:39.360Z,0.70
2023-01-12T07:06:39.346Z,0.80
2023-01-12T07:07:40.490Z,0.80
2023-01-12T07:08:39.390Z,0.60
2023-01-12T07:09:39.417Z,0.80
2023-01-12T07:10:39.328Z,0.80
2023-01-12T07:11:39.327Z,0.90
2023-01-12T07:12:39.323Z,0.90
2023-01-12T07:13:39.423Z,0.90
2023-01-12T07:14:39.279Z,0.80
2023-01-12T07:15:39.349Z,0.70
2023-01-12T07:16:39.242Z,0.80
2023-01-12T07:17:39.268Z,0.60
2023-01-12T07:18:39.286Z,0.70
2023-01-12T07:19:41.473Z,0.90
2023-01-12T07:20:39.150Z,0.80
2023-01-12T07:21:39.171Z,0.80
2023-01-12T07:22:39.154Z,0.80
2023-01-12T07:23:39.161Z,0.70
2023-01-12T07:24:39.197Z,0.60
2023-01-12T07:25:39.174Z,0.80
2023-01-12T07:26:39.196Z,0.80
2023-01-12T07:27:39.111Z,0.80
2023-01-12T07:28:39.106Z,1.00
2023-01-12T07:29:39.254Z,0.80
2023-01-12T07:30:39.090Z,0.90
2023-01-12T07:31:39.035Z,0.90
2023-01-12T07:32:39.042Z,0.80
2023-01-12T07:33:39.062Z,0.70
2023-01-12T07:34:39.078Z,0.70
2023-01-12T07:35:39.078Z,0.90
2023-01-12T07:36:39.113Z,0.80
2023-01-12T07:37:39.027Z,0.70
2023-01-12T07:38:39.046Z,0.70
2023-01-12T07:39:39.057Z,0.90
2023-01-12T07:40:39.002Z,0.70
2023-01-12T07:41:39.107Z,0.80
2023-01-12T07:42:39.017Z,0.80
2023-01-12T07:43:39.008Z,0.70
2023-01-12T07:44:39.010Z,0.90
2023-01-12T07:45:39.000Z,0.80
2023-01-12T07:46:39.029Z,0.70
2023-01-12T07:47:38.992Z,0.90
2023-01-12T07:48:38.941Z,0.80
2023-01-12T07:49:38.928Z,0.80
2023-01-12T07:50:38.925Z,0.60
2023-01-12T07:51:38.980Z,0.70
2023-01-12T07:52:38.911Z,0.80
2023-01-12T07:53:38.929Z,0.70
2023-01-12T07:54:38.922Z,0.70
2023-01-12T07:55:38.819Z,0.70
2023-01-12T07:56:38.834Z,0.70
2023-01-12T07:57:38.895Z,0.60
2023-01-12T07:58:38.814Z,0.50
2023-01-12T07:59:38.826Z,0.70
2023-01-12T08:00:38.852Z,0.70
2023-01-12T08:01:38.955Z,0.80
2023-01-12T08:02:38.793Z,0.80
2023-01-12T08:03:38.812Z,0.60
2023-01-12T08:04:38.739Z,0.60
2023-01-12T08:05:38.805Z,0.50
2023-01-12T08:06:38.800Z,0.70
2023-01-12T08:07:38.801Z,0.60
2023-01-12T08:08:38.744Z,0.70
2023-01-12T08:09:38.672Z,0.50
2023-01-12T08:10:38.691Z,0.60
2023-01-12T08:11:38.711Z,0.70
2023-01-12T08:12:38.772Z,0.70
2023-01-12T08:13:38.783Z,0.70
2023-01-12T08:14:38.773Z,0.50
2023-01-12T08:15:38.545Z,0.60
2023-01-12T08:16:38.582Z,0.40
2023-01-12T08:17:38.611Z,0.60
2023-01-12T08:18:38.634Z,0.40
2023-01-12T08:19:38.733Z,0.70
2023-01-12T08:20:38.676Z,0.50
2023-01-12T08:21:38.688Z,0.70
2023-01-12T08:22:38.505Z,0.50
2023-01-12T08:23:39.953Z,0.60
2023-01-12T08:24:38.580Z,0.50
2023-01-12T08:25:38.504Z,0.60
2023-01-12T08:26:38.503Z,0.50
2023-01-12T08:27:38.495Z,0.40
2023-01-12T08:28:38.497Z,0.60
2023-01-12T08:29:38.482Z,0.70
2023-01-12T08:30:38.539Z,0.90
2023-01-12T08:31:38.468Z,0.40
2023-01-12T08:32:38.395Z,0.40
2023-01-12T08:33:38.495Z,0.50
2023-01-12T08:34:38.417Z,0.60
2023-01-12T08:35:38.412Z,0.60
2023-01-12T08:36:38.414Z,0.50
2023-01-12T08:37:38.338Z,0.50
2023-01-12T08:38:38.338Z,0.70
2023-01-12T08:39:38.336Z,0.50
2023-01-12T08:40:38.325Z,0.70
2023-01-12T08:41:38.306Z,0.50
2023-01-12T08:42:38.382Z,0.50
2023-01-12T08:43:38.267Z,0.40
2023-01-12T08:44:38.330Z,0.60
2023-01-12T08:45:38.395Z,0.60
2023-01-12T08:46:38.310Z,0.50
2023-01-12T08:47:38.308Z,0.60
2023-01-12T08:48:38.244Z,0.50
2023-01-12T08:49:38.215Z,0.50
2023-01-12T08:50:38.281Z,0.40
2023-01-12T08:51:38.185Z,0.60
2023-01-12T08:52:38.169Z,0.50
2023-01-12T08:53:38.245Z,0.60
2023-01-12T08:54:38.145Z,0.50
2023-01-12T08:55:38.274Z,0.50
2023-01-12T08:56:38.327Z,0.50
2023-01-12T08:57:38.130Z,0.40
2023-01-12T08:58:38.116Z,0.50
2023-01-12T08:59:38.103Z,0.50
2023-01-12T09:00:38.174Z,0.70
2023-01-12T09:01:38.435Z,0.60
2023-01-12T09:02:38.210Z,0.60
2023-01-12T09:03:38.145Z,1.40
2023-01-12T09:04:38.091Z,1.20
2023-01-12T09:05:38.110Z,1.10
2023-01-12T09:06:38.117Z,0.80
2023-01-12T09:07:38.185Z,0.70
2023-01-12T09:08:38.253Z,1.00
2023-01-12T09:09:38.106Z,0.70
2023-01-12T09:10:38.088Z,0.60
2023-01-12T09:11:38.001Z,0.80
2023-01-12T09:12:37.991Z,1.00
2023-01-12T09:13:38.124Z,0.70
2023-01-12T09:14:38.032Z,0.60
2023-01-12T09:15:38.110Z,1.00
2023-01-12T09:16:38.035Z,1.30
2023-01-12T09:17:38.081Z,1.20
2023-01-12T09:18:37.949Z,1.90
2023-01-12T09:19:37.970Z,1.40
2023-01-12T09:20:37.914Z,1.40
2023-01-12T09:21:37.945Z,1.10
2023-01-12T09:22:37.925Z,1.50
2023-01-12T09:23:38.015Z,1.20
2023-01-12T09:24:37.980Z,0.80
2023-01-12T09:25:37.901Z,0.60
2023-01-12T09:26:37.879Z,0.70
2023-01-12T09:27:37.934Z,1.00
2023-01-12T09:28:37.918Z,0.80
2023-01-12T09:29:37.911Z,0.90
2023-01-12T09:30:37.829Z,1.00
2023-01-12T09:31:37.875Z,1.10
2023-01-12T09:32:37.796Z,0.80
2023-01-12T09:33:37.815Z,0.80
2023-01-12T09:34:37.933Z,0.80
2023-01-12T09:35:37.681Z,1.00
2023-01-12T09:36:37.689Z,0.80
2023-01-12T09:37:37.686Z,0.80
2023-01-12T09:38:37.838Z,0.90
2023-01-12T09:39:37.822Z,1.10
2023-01-12T09:40:37.657Z,1.00
2023-01-12T09:41:37.632Z,0.90
2023-01-12T09:42:37.609Z,0.80
2023-01-12T09:43:37.610Z,1.00
2023-01-12T09:44:37.732Z,0.90
2023-01-12T09:45:37.780Z,1.00
2023-01-12T09:46:37.700Z,0.90
2023-01-12T09:47:37.685Z,1.10
2023-01-12T09:48:37.669Z,1.00
2023-01-12T09:49:37.647Z,0.80
2023-01-12T09:50:37.709Z,0.90
2023-01-12T09:51:37.611Z,0.90
2023-01-12T09:52:37.585Z,1.40
2023-01-12T09:53:37.709Z,0.80
2023-01-12T09:54:37.583Z,0.90
2023-01-12T09:55:37.548Z,1.00
2023-01-12T09:56:37.601Z,1.00
2023-01-12T09:57:37.559Z,1.10
2023-01-12T09:58:37.616Z,0.80
2023-01-12T09:59:37.491Z,1.20
2023-01-12T10:00:37.556Z,1.20
2023-01-12T10:01:37.648Z,1.20
2023-01-12T10:02:37.591Z,1.30
2023-01-12T10:03:37.605Z,1.20
2023-01-12T10:04:37.562Z,1.20
2023-01-12T10:05:40.549Z,1.70
2023-01-12T10:06:37.380Z,1.20
2023-01-12T10:07:37.380Z,1.30
2023-01-12T10:08:37.388Z,1.60
2023-01-12T10:09:37.404Z,1.30
2023-01-12T10:10:37.420Z,1.10
2023-01-12T10:11:37.592Z,1.30
2023-01-12T10:12:37.330Z,1.00
2023-01-12T10:13:37.451Z,1.30
2023-01-12T10:14:37.344Z,1.10
2023-01-12T10:15:37.346Z,1.20
2023-01-12T10:16:37.395Z,1.10
2023-01-12T10:17:50.374Z,1.30
2023-01-12T10:18:37.304Z,1.30
2023-01-12T10:19:37.299Z,1.00
2023-01-12T10:20:37.284Z,1.00
2023-01-12T10:21:37.283Z,0.90
2023-01-12T10:22:37.839Z,0.90
2023-01-12T10:23:37.249Z,0.90
2023-01-12T10:24:37.231Z,0.80
2023-01-12T10:25:37.208Z,0.90
2023-01-12T10:26:37.269Z,1.10
2023-01-12T10:27:37.176Z,1.00
2023-01-12T10:28:37.145Z,0.90
2023-01-12T10:29:37.204Z,1.00
2023-01-12T10:30:37.213Z,1.00
2023-01-12T10:31:37.311Z,0.90
2023-01-12T10:32:41.871Z,0.90
2023-01-12T10:33:37.120Z,1.20
2023-01-12T10:34:37.104Z,1.00
2023-01-12T10:35:37.086Z,1.00
2023-01-12T10:36:37.172Z,0.90
2023-01-12T10:37:37.148Z,0.90
2023-01-12T10:38:37.117Z,0.90
2023-01-12T10:39:37.084Z,0.80
2023-01-12T10:40:37.065Z,0.90
2023-01-12T10:41:37.200Z,1.00
2023-01-12T10:42:37.199Z,0.80
2023-01-12T10:43:37.018Z,1.00
2023-01-12T10:44:36.982Z,0.90
2023-01-12T10:45:37.021Z,1.00
2023-01-12T10:46:36.978Z,1.00
2023-01-12T10:47:37.124Z,1.10
2023-01-12T10:48:36.962Z,1.00
2023-01-12T10:49:36.956Z,1.20
2023-01-12T10:50:36.945Z,1.10
2023-01-12T10:51:36.923Z,1.20
2023-01-12T10:52:37.064Z,1.20
2023-01-12T10:53:36.921Z,1.10
2023-01-12T10:54:37.021Z,1.20
2023-01-12T10:55:36.851Z,1.20
2023-01-12T10:56:36.870Z,1.20
2023-01-12T10:57:36.823Z,1.20
2023-01-12T10:58:36.978Z,1.10
2023-01-12T10:59:36.789Z,1.20
2023-01-12T11:00:36.809Z,1.10
2023-01-12T11:01:36.995Z,1.30
2023-01-12T11:02:37.063Z,1.10
2023-01-12T11:03:36.810Z,1.30
2023-01-12T11:04:36.851Z,1.30
2023-01-12T11:05:36.926Z,1.30
2023-01-12T11:06:36.828Z,1.20
2023-01-12T11:07:36.771Z,1.30
2023-01-12T11:08:36.794Z,1.20
2023-01-12T11:09:36.731Z,1.20
2023-01-12T11:10:36.812Z,1.20
2023-01-12T11:11:36.742Z,1.20
2023-01-12T11:12:36.818Z,1.30
2023-01-12T11:13:36.730Z,1.10
2023-01-12T11:14:36.793Z,1.30
2023-01-12T11:15:36.696Z,1.30
2023-01-12T11:16:36.715Z,1.10
2023-01-12T11:17:36.730Z,1.20
2023-01-12T11:18:36.733Z,1.20
2023-01-12T11:19:36.666Z,1.20
2023-01-12T11:20:36.787Z,1.10
2023-01-12T11:21:36.673Z,1.00
2023-01-12T11:22:36.697Z,0.90
2023-01-12T11:23:36.690Z,1.00
2023-01-12T11:24:36.677Z,0.90
2023-01-12T11:25:36.750Z,1.10
2023-01-12T11:26:36.588Z,1.00
2023-01-12T11:27:36.666Z,1.00
2023-01-12T11:28:36.579Z,0.90
2023-01-12T11:29:36.594Z,1.00
2023-01-12T11:30:36.618Z,0.80
2023-01-12T11:31:36.563Z,0.70
2023-01-12T11:32:36.594Z,1.10
2023-01-12T11:33:36.599Z,1.00
2023-01-12T11:34:36.548Z,0.80
2023-01-12T11:35:36.645Z,1.20
2023-01-12T11:36:36.572Z,1.00
2023-01-12T11:37:36.501Z,1.00
2023-01-12T11:38:36.506Z,1.00
2023-01-12T11:39:36.522Z,1.10
2023-01-12T11:40:36.520Z,1.00
2023-01-12T11:41:36.430Z,1.20
2023-01-12T11:42:36.513Z,1.20
2023-01-12T11:43:36.431Z,1.20
2023-01-12T11:44:36.422Z,1.10
2023-01-12T11:45:36.414Z,1.00
2023-01-12T11:46:36.437Z,0.90
2023-01-12T11:47:36.420Z,1.00
2023-01-12T11:48:36.507Z,1.00
2023-01-12T11:49:36.342Z,1.00
2023-01-12T11:50:36.337Z,1.10
2023-01-12T11:51:36.339Z,1.00
2023-01-12T11:52:36.332Z,1.00
2023-01-12T11:53:36.415Z,0.80
2023-01-12T11:54:36.324Z,0.80
2023-01-12T11:55:36.319Z,0.80
2023-01-12T11:56:36.303Z,0.80
2023-01-12T11:57:36.281Z,0.80
2023-01-12T11:58:36.347Z,0.80
2023-01-12T11:59:36.261Z,0.80
2023-01-12T12:00:36.280Z,0.80
2023-01-12T12:01:36.171Z,0.80
2023-01-12T12:02:36.297Z,0.70
2023-01-12T12:03:36.316Z,0.90
2023-01-12T12:04:36.333Z,0.90
2023-01-12T12:05:36.263Z,0.90
2023-01-12T12:06:36.148Z,0.90
2023-01-12T12:07:36.188Z,0.90
2023-01-12T12:08:36.145Z,0.90
2023-01-12T12:09:36.185Z,1.00
2023-01-12T12:10:36.209Z,0.90
2023-01-12T12:11:36.165Z,0.80
2023-01-12T12:12:36.115Z,1.00
2023-01-12T12:13:36.149Z,1.00
2023-01-12T12:14:36.162Z,1.10
2023-01-12T12:15:36.131Z,0.90
2023-01-12T12:16:36.195Z,0.80
2023-01-12T12:17:36.051Z,0.80
2023-01-12T12:18:36.077Z,0.90
2023-01-12T12:19:36.092Z,0.80
2023-01-12T12:20:36.110Z,0.80
2023-01-12T12:21:36.148Z,0.80
2023-01-12T12:22:36.067Z,0.90
2023-01-12T12:23:36.011Z,0.90
2023-01-12T12:24:36.020Z,0.70
2023-01-12T12:25:36.032Z,0.80
2023-01-12T12:26:36.141Z,0.90
2023-01-12T12:27:36.092Z,1.00
2023-01-12T12:28:35.941Z,1.00
2023-01-12T12:29:35.965Z,1.10
2023-01-12T12:30:35.972Z,0.90
2023-01-12T12:31:36.123Z,1.00
2023-01-12T12:32:35.966Z,1.10
2023-01-12T12:33:35.988Z,1.00
2023-01-12T12:34:35.868Z,1.10
2023-01-12T12:35:35.879Z,1.00
2023-01-12T12:36:35.998Z,0.90
2023-01-12T12:37:35.814Z,1.10
2023-01-12T12:38:35.829Z,1.00
2023-01-12T12:39:35.860Z,1.00
2023-01-12T12:40:35.787Z,1.00
2023-01-12T12:41:35.815Z,1.00
2023-01-12T12:42:35.850Z,1.00
2023-01-12T12:43:35.801Z,1.10
2023-01-12T12:44:35.828Z,1.00
2023-01-12T12:45:35.769Z,1.10
2023-01-12T12:46:35.827Z,1.10
2023-01-12T12:47:35.806Z,1.10
2023-01-12T12:48:35.806Z,1.00
2023-01-12T12:49:35.791Z,1.10
2023-01-12T12:50:35.713Z,1.10
2023-01-12T12:51:35.697Z,1.10
2023-01-12T12:52:35.771Z,1.10
2023-01-12T12:53:35.788Z,1.00
2023-01-12T12:54:35.673Z,1.00
2023-01-12T12:55:35.734Z,1.00
2023-01-12T12:56:35.641Z,1.00
2023-01-12T12:57:35.715Z,1.00
2023-01-12T12:58:35.709Z,1.00
2023-01-12T12:59:35.685Z,1.00
2023-01-12T13:00:35.717Z,1.20
2023-01-12T13:01:35.772Z,1.10
2023-01-12T13:02:35.765Z,1.10
2023-01-12T13:03:35.706Z,1.10
2023-01-12T13:04:35.605Z,1.00
2023-01-12T13:05:35.576Z,1.00
2023-01-12T13:06:35.558Z,0.90
2023-01-12T13:07:35.553Z,1.00
2023-01-12T13:08:35.622Z,1.20
2023-01-12T13:09:35.627Z,1.00
2023-01-12T13:10:35.585Z,1.00
2023-01-12T13:11:35.498Z,1.10
2023-01-12T13:12:35.511Z,1.00
2023-01-12T13:13:35.540Z,1.10
2023-01-12T13:14:35.498Z,1.10
2023-01-12T13:15:35.656Z,1.10
2023-01-12T13:16:35.458Z,1.20
2023-01-12T13:17:35.479Z,1.20
2023-01-12T13:18:35.424Z,1.20